This is the latest recevied weather packets stored in our database for station/object KN6CRX. If no packets are shown the sender has not sent any weather packets the latest 10 day(s).
| Time | Temp. | Humidity | Pressure | Rain* | Wind** | Luminosity | Snow |
|---|---|---|---|---|---|---|---|
| 1787763571 | 25° C | 35% | 1025.9 hPa | 0 mm | - | 325 W/m² | - |
| 1787763266 | 24.44° C | 36% | 1025.9 hPa | 0 mm | - | 323 W/m² | - |
| 1787762966 | 23.89° C | 41% | 1025.9 hPa | 0 mm | - | 270 W/m² | - |
| 1787762666 | 23.33° C | 41% | 1025.8 hPa | 0 mm | - | 321 W/m² | - |
| 1787762364 | 23.33° C | 42% | 1025.8 hPa | 0 mm | - | 252 W/m² | - |
| 1787762062 | 23.33° C | 41% | 1025.9 hPa | 0 mm | - | 283 W/m² | - |
| 1787761758 | 23.33° C | 43% | 1025.8 hPa | 0 mm | - | 274 W/m² | - |
| 1787761453 | 22.22° C | 43% | 1025.9 hPa | 0 mm | - | 563 W/m² | - |
| 1787761147 | 22.22° C | 44% | 1025.5 hPa | 0 mm | - | 596 W/m² | - |
| 1787760847 | 21.67° C | 48% | 1025.6 hPa | 0 mm | - | 213 W/m² | - |
| 1787760545 | 21.11° C | 48% | 1025.5 hPa | 0 mm | - | 258 W/m² | - |
| 1787760239 | 21.11° C | 45% | 1025.8 hPa | 0 mm | - | 224 W/m² | - |
| 1787759936 | 21.11° C | 46% | 1025.9 hPa | 0 mm | - | 281 W/m² | - |
| 1787759631 | 20.56° C | 47% | 1025.6 hPa | 0 mm | - | 324 W/m² | - |
| 1787759327 | 21.11° C | 44% | 1025.8 hPa | 0 mm | - | 206 W/m² | - |
| 1787759028 | 20.56° C | 48% | 1025.5 hPa | 0 mm | - | 489 W/m² | - |
| 1787758727 | 20° C | 48% | 1025.8 hPa | 0 mm | - | 331 W/m² | - |
| 1787758423 | 20° C | 50% | 1025.5 hPa | 0 mm | - | 316 W/m² | - |
| 1787758121 | 19.44° C | 50% | 1025.6 hPa | 0 mm | - | 97 W/m² | - |
| 1787757818 | 19.44° C | 51% | 1025.6 hPa | 0 mm | - | 173 W/m² | - |
| 1787757513 | 18.89° C | 50% | 1025.6 hPa | 0 mm | - | 96 W/m² | - |
| 1787757207 | 18.33° C | 51% | 1025.4 hPa | 0 mm | - | 82 W/m² | - |
| 1787756906 | 18.33° C | 49% | 1025.6 hPa | 0 mm | - | 86 W/m² | - |
| 1787756602 | 17.78° C | 52% | 1025.5 hPa | 0 mm | - | 77 W/m² | - |
| 1787756301 | 17.78° C | 52% | 1025.6 hPa | 0 mm | - | 67 W/m² | - |
* Rain latest hour (hover to see other rain measurements)
** Current wind speed in m/s (hover to see current wind gust speed)